sensor_id;sensor_type;location;lat;lon;timestamp;temperature;humidity
14349;DHT22;7258;50.376;8.742;2023-08-12T00:00:33;19.40;99.90
14349;DHT22;7258;50.376;8.742;2023-08-12T00:03:18;19.30;99.90
14349;DHT22;7258;50.376;8.742;2023-08-12T00:06:10;19.30;99.90
14349;DHT22;7258;50.376;8.742;2023-08-12T00:08:58;19.30;99.90
14349;DHT22;7258;50.376;8.742;2023-08-12T00:11:42;19.30;99.90
14349;DHT22;7258;50.376;8.742;2023-08-12T00:15:05;19.30;99.90
14349;DHT22;7258;50.376;8.742;2023-08-12T00:17:15;19.30;99.90
14349;DHT22;7258;50.376;8.742;2023-08-12T00:19:27;19.30;99.90
14349;DHT22;7258;50.376;8.742;2023-08-12T00:21:43;19.30;99.90
14349;DHT22;7258;50.376;8.742;2023-08-12T00:24:08;19.30;99.90
14349;DHT22;7258;50.376;8.742;2023-08-12T00:30:31;19.30;99.90
14349;DHT22;7258;50.376;8.742;2023-08-12T00:32:57;19.30;99.90
14349;DHT22;7258;50.376;8.742;2023-08-12T00:35:33;19.30;99.90
14349;DHT22;7258;50.376;8.742;2023-08-12T00:38:14;19.30;99.90
14349;DHT22;7258;50.376;8.742;2023-08-12T00:40:34;19.30;99.90
14349;DHT22;7258;50.376;8.742;2023-08-12T00:42:51;19.30;99.90
14349;DHT22;7258;50.376;8.742;2023-08-12T00:45:17;19.40;99.90
14349;DHT22;7258;50.376;8.742;2023-08-12T00:47:31;19.40;99.90
14349;DHT22;7258;50.376;8.742;2023-08-12T00:49:54;19.50;99.90
14349;DHT22;7258;50.376;8.742;2023-08-12T00:52:47;19.60;99.90
14349;DHT22;7258;50.376;8.742;2023-08-12T00:54:55;19.60;99.90
14349;DHT22;7258;50.376;8.742;2023-08-12T01:00:22;19.50;99.90
14349;DHT22;7258;50.376;8.742;2023-08-12T01:02:56;19.50;99.90
14349;DHT22;7258;50.376;8.742;2023-08-12T01:05:06;19.50;99.90
14349;DHT22;7258;50.376;8.742;2023-08-12T01:07:31;19.50;99.90
14349;DHT22;7258;50.376;8.742;2023-08-12T01:09:51;19.60;99.90
14349;DHT22;7258;50.376;8.742;2023-08-12T01:12:09;19.60;99.90
14349;DHT22;7258;50.376;8.742;2023-08-12T01:14:46;19.60;99.90
14349;DHT22;7258;50.376;8.742;2023-08-12T01:17:25;19.60;99.90
14349;DHT22;7258;50.376;8.742;2023-08-12T01:19:59;19.50;99.90
14349;DHT22;7258;50.376;8.742;2023-08-12T01:22:21;19.60;99.90
14349;DHT22;7258;50.376;8.742;2023-08-12T01:25:12;19.60;99.90
14349;DHT22;7258;50.376;8.742;2023-08-12T01:27:51;19.50;99.90
14349;DHT22;7258;50.376;8.742;2023-08-12T01:30:46;19.60;99.90
14349;DHT22;7258;50.376;8.742;2023-08-12T01:33:49;19.60;99.90
14349;DHT22;7258;50.376;8.742;2023-08-12T01:36:17;19.60;99.90
14349;DHT22;7258;50.376;8.742;2023-08-12T01:39:07;19.60;99.90
14349;DHT22;7258;50.376;8.742;2023-08-12T01:41:59;19.60;99.90
14349;DHT22;7258;50.376;8.742;2023-08-12T01:44:16;19.60;99.90
14349;DHT22;7258;50.376;8.742;2023-08-12T01:46:34;19.70;99.90
14349;DHT22;7258;50.376;8.742;2023-08-12T01:48:53;19.70;99.90
14349;DHT22;7258;50.376;8.742;2023-08-12T01:51:03;19.70;99.90
14349;DHT22;7258;50.376;8.742;2023-08-12T01:53:14;19.70;99.90
14349;DHT22;7258;50.376;8.742;2023-08-12T01:55:31;19.70;99.90
14349;DHT22;7258;50.376;8.742;2023-08-12T01:58:14;19.70;99.90
14349;DHT22;7258;50.376;8.742;2023-08-12T02:00:30;19.70;99.90
14349;DHT22;7258;50.376;8.742;2023-08-12T02:02:33;19.60;99.90
14349;DHT22;7258;50.376;8.742;2023-08-12T02:04:54;19.60;99.90
14349;DHT22;7258;50.376;8.742;2023-08-12T02:07:37;19.60;99.90
14349;DHT22;7258;50.376;8.742;2023-08-12T02:10:12;19.60;99.90
14349;DHT22;7258;50.376;8.742;2023-08-12T02:16:10;19.60;99.90
14349;DHT22;7258;50.376;8.742;2023-08-12T02:21:09;19.60;99.90
14349;DHT22;7258;50.376;8.742;2023-08-12T02:24:07;19.60;99.90
14349;DHT22;7258;50.376;8.742;2023-08-12T02:26:19;19.40;99.90
14349;DHT22;7258;50.376;8.742;2023-08-12T02:28:42;19.30;99.90
14349;DHT22;7258;50.376;8.742;2023-08-12T02:31:26;19.30;99.90
14349;DHT22;7258;50.376;8.742;2023-08-12T02:33:37;19.30;99.90
14349;DHT22;7258;50.376;8.742;2023-08-12T02:36:20;19.30;99.90
14349;DHT22;7258;50.376;8.742;2023-08-12T02:38:32;19.30;99.90
14349;DHT22;7258;50.376;8.742;2023-08-12T02:40:49;19.30;99.90
14349;DHT22;7258;50.376;8.742;2023-08-12T02:43:15;19.30;99.90
14349;DHT22;7258;50.376;8.742;2023-08-12T02:45:41;19.30;99.90
14349;DHT22;7258;50.376;8.742;2023-08-12T02:48:00;19.20;99.90
14349;DHT22;7258;50.376;8.742;2023-08-12T02:50:17;19.20;99.90
14349;DHT22;7258;50.376;8.742;2023-08-12T02:52:52;19.20;99.90
14349;DHT22;7258;50.376;8.742;2023-08-12T02:55:04;19.20;99.90
14349;DHT22;7258;50.376;8.742;2023-08-12T02:57:23;19.20;99.90
14349;DHT22;7258;50.376;8.742;2023-08-12T02:59:56;19.10;99.90
14349;DHT22;7258;50.376;8.742;2023-08-12T03:02:13;19.20;99.90
14349;DHT22;7258;50.376;8.742;2023-08-12T03:04:33;19.20;99.90
14349;DHT22;7258;50.376;8.742;2023-08-12T03:06:52;19.20;99.90
14349;DHT22;7258;50.376;8.742;2023-08-12T03:09:00;19.20;99.90
14349;DHT22;7258;50.376;8.742;2023-08-12T03:11:20;19.20;99.90
14349;DHT22;7258;50.376;8.742;2023-08-12T03:14:09;19.10;99.90
14349;DHT22;7258;50.376;8.742;2023-08-12T03:25:50;19.00;99.90
14349;DHT22;7258;50.376;8.742;2023-08-12T03:28:08;19.00;99.90
14349;DHT22;7258;50.376;8.742;2023-08-12T03:30:36;18.90;99.90
14349;DHT22;7258;50.376;8.742;2023-08-12T03:33:15;18.80;99.90
14349;DHT22;7258;50.376;8.742;2023-08-12T03:36:08;18.70;99.90
14349;DHT22;7258;50.376;8.742;2023-08-12T03:38:58;18.60;99.90
14349;DHT22;7258;50.376;8.742;2023-08-12T03:44:58;18.50;99.90
14349;DHT22;7258;50.376;8.742;2023-08-12T03:47:49;18.40;99.90
14349;DHT22;7258;50.376;8.742;2023-08-12T03:50:23;18.40;99.90
14349;DHT22;7258;50.376;8.742;2023-08-12T03:52:48;18.40;99.90
14349;DHT22;7258;50.376;8.742;2023-08-12T03:57:55;18.50;99.90
14349;DHT22;7258;50.376;8.742;2023-08-12T04:00:17;18.50;99.90
14349;DHT22;7258;50.376;8.742;2023-08-12T04:02:51;18.50;99.90
14349;DHT22;7258;50.376;8.742;2023-08-12T04:05:08;18.60;99.90
14349;DHT22;7258;50.376;8.742;2023-08-12T04:07:33;18.60;99.90
14349;DHT22;7258;50.376;8.742;2023-08-12T04:09:53;18.60;99.90
14349;DHT22;7258;50.376;8.742;2023-08-12T04:12:12;18.60;99.90
14349;DHT22;7258;50.376;8.742;2023-08-12T04:14:39;18.70;99.90
14349;DHT22;7258;50.376;8.742;2023-08-12T04:16:56;18.70;99.90
14349;DHT22;7258;50.376;8.742;2023-08-12T04:19:14;18.70;99.90
14349;DHT22;7258;50.376;8.742;2023-08-12T04:21:58;18.80;99.90
14349;DHT22;7258;50.376;8.742;2023-08-12T04:24:14;18.80;99.90
14349;DHT22;7258;50.376;8.742;2023-08-12T04:26:27;18.90;99.90
14349;DHT22;7258;50.376;8.742;2023-08-12T04:29:08;18.90;99.90
14349;DHT22;7258;50.376;8.742;2023-08-12T04:31:14;18.90;99.90
14349;DHT22;7258;50.376;8.742;2023-08-12T04:33:19;18.80;99.90
14349;DHT22;7258;50.376;8.742;2023-08-12T04:35:23;18.80;99.90
14349;DHT22;7258;50.376;8.742;2023-08-12T04:37:32;18.80;99.90
14349;DHT22;7258;50.376;8.742;2023-08-12T04:39:45;18.80;99.90
14349;DHT22;7258;50.376;8.742;2023-08-12T04:41:59;18.80;99.90
14349;DHT22;7258;50.376;8.742;2023-08-12T04:44:07;18.80;99.90
14349;DHT22;7258;50.376;8.742;2023-08-12T04:46:14;18.90;99.90
14349;DHT22;7258;50.376;8.742;2023-08-12T04:48:20;18.90;99.90
14349;DHT22;7258;50.376;8.742;2023-08-12T04:50:23;18.90;99.90
14349;DHT22;7258;50.376;8.742;2023-08-12T04:52:28;18.90;99.90
14349;DHT22;7258;50.376;8.742;2023-08-12T04:54:32;18.90;99.90
14349;DHT22;7258;50.376;8.742;2023-08-12T04:56:36;18.90;99.90
14349;DHT22;7258;50.376;8.742;2023-08-12T04:58:39;18.90;99.90
14349;DHT22;7258;50.376;8.742;2023-08-12T05:01:08;18.90;99.90
14349;DHT22;7258;50.376;8.742;2023-08-12T05:03:11;18.80;99.90
14349;DHT22;7258;50.376;8.742;2023-08-12T05:05:15;18.80;99.90
14349;DHT22;7258;50.376;8.742;2023-08-12T05:07:21;18.90;99.90
14349;DHT22;7258;50.376;8.742;2023-08-12T05:09:24;18.90;99.90
14349;DHT22;7258;50.376;8.742;2023-08-12T05:11:26;18.80;99.90
14349;DHT22;7258;50.376;8.742;2023-08-12T05:13:29;18.90;99.90
14349;DHT22;7258;50.376;8.742;2023-08-12T05:15:32;18.90;99.90
14349;DHT22;7258;50.376;8.742;2023-08-12T05:17:38;19.00;99.90
14349;DHT22;7258;50.376;8.742;2023-08-12T05:19:41;19.00;99.90
14349;DHT22;7258;50.376;8.742;2023-08-12T05:21:45;19.00;99.90
14349;DHT22;7258;50.376;8.742;2023-08-12T05:23:48;19.00;99.90
14349;DHT22;7258;50.376;8.742;2023-08-12T05:25:51;19.00;99.90
14349;DHT22;7258;50.376;8.742;2023-08-12T05:27:56;18.90;99.90
14349;DHT22;7258;50.376;8.742;2023-08-12T05:29:59;19.00;99.90
14349;DHT22;7258;50.376;8.742;2023-08-12T05:32:02;19.00;99.90
14349;DHT22;7258;50.376;8.742;2023-08-12T05:34:05;19.10;99.90
14349;DHT22;7258;50.376;8.742;2023-08-12T05:36:08;19.20;99.90
14349;DHT22;7258;50.376;8.742;2023-08-12T05:38:12;19.20;99.90
14349;DHT22;7258;50.376;8.742;2023-08-12T05:40:16;19.20;99.90
14349;DHT22;7258;50.376;8.742;2023-08-12T05:42:18;19.20;99.90
14349;DHT22;7258;50.376;8.742;2023-08-12T05:44:21;19.20;99.90
14349;DHT22;7258;50.376;8.742;2023-08-12T05:46:24;19.20;99.90
14349;DHT22;7258;50.376;8.742;2023-08-12T05:48:28;19.20;99.90
14349;DHT22;7258;50.376;8.742;2023-08-12T05:50:31;19.30;99.90
14349;DHT22;7258;50.376;8.742;2023-08-12T05:52:34;19.30;99.90
14349;DHT22;7258;50.376;8.742;2023-08-12T05:54:38;19.30;99.90
14349;DHT22;7258;50.376;8.742;2023-08-12T05:56:41;19.40;99.90
14349;DHT22;7258;50.376;8.742;2023-08-12T05:58:44;19.50;99.90
14349;DHT22;7258;50.376;8.742;2023-08-12T06:00:46;19.50;99.90
14349;DHT22;7258;50.376;8.742;2023-08-12T06:02:49;19.50;99.90
14349;DHT22;7258;50.376;8.742;2023-08-12T06:04:54;19.50;99.90
14349;DHT22;7258;50.376;8.742;2023-08-12T06:06:57;19.60;99.90
14349;DHT22;7258;50.376;8.742;2023-08-12T06:08:59;19.60;99.90
14349;DHT22;7258;50.376;8.742;2023-08-12T06:11:04;19.60;99.90
14349;DHT22;7258;50.376;8.742;2023-08-12T06:13:06;19.70;99.90
14349;DHT22;7258;50.376;8.742;2023-08-12T06:15:10;19.80;99.90
14349;DHT22;7258;50.376;8.742;2023-08-12T06:17:13;19.80;99.90
14349;DHT22;7258;50.376;8.742;2023-08-12T06:19:16;19.80;99.90
14349;DHT22;7258;50.376;8.742;2023-08-12T06:21:18;19.80;99.90
14349;DHT22;7258;50.376;8.742;2023-08-12T06:23:21;19.70;99.90
14349;DHT22;7258;50.376;8.742;2023-08-12T06:25:28;19.70;99.90
14349;DHT22;7258;50.376;8.742;2023-08-12T06:27:32;19.60;99.90
14349;DHT22;7258;50.376;8.742;2023-08-12T06:29:35;19.60;99.90
14349;DHT22;7258;50.376;8.742;2023-08-12T06:31:39;19.60;99.90
14349;DHT22;7258;50.376;8.742;2023-08-12T06:33:42;19.80;99.90
14349;DHT22;7258;50.376;8.742;2023-08-12T06:35:45;19.90;99.90
14349;DHT22;7258;50.376;8.742;2023-08-12T06:37:51;20.00;99.90
14349;DHT22;7258;50.376;8.742;2023-08-12T06:39:54;20.10;99.90
14349;DHT22;7258;50.376;8.742;2023-08-12T06:41:57;20.10;99.90
14349;DHT22;7258;50.376;8.742;2023-08-12T06:44:02;20.30;99.90
14349;DHT22;7258;50.376;8.742;2023-08-12T06:46:05;20.50;99.90
14349;DHT22;7258;50.376;8.742;2023-08-12T06:48:08;20.60;99.90
14349;DHT22;7258;50.376;8.742;2023-08-12T06:50:10;20.70;99.90
14349;DHT22;7258;50.376;8.742;2023-08-12T06:52:13;20.80;99.90
14349;DHT22;7258;50.376;8.742;2023-08-12T06:54:16;20.80;99.90
14349;DHT22;7258;50.376;8.742;2023-08-12T06:56:19;20.90;99.90
14349;DHT22;7258;50.376;8.742;2023-08-12T06:58:22;21.10;99.90
14349;DHT22;7258;50.376;8.742;2023-08-12T07:00:26;21.40;99.90
14349;DHT22;7258;50.376;8.742;2023-08-12T07:02:29;21.60;99.90
14349;DHT22;7258;50.376;8.742;2023-08-12T07:04:32;21.80;99.90
14349;DHT22;7258;50.376;8.742;2023-08-12T07:06:35;21.90;99.90
14349;DHT22;7258;50.376;8.742;2023-08-12T07:08:38;22.00;99.90
14349;DHT22;7258;50.376;8.742;2023-08-12T07:10:41;22.10;99.90
14349;DHT22;7258;50.376;8.742;2023-08-12T07:12:44;22.20;99.90
14349;DHT22;7258;50.376;8.742;2023-08-12T07:14:47;22.40;99.90
14349;DHT22;7258;50.376;8.742;2023-08-12T07:16:51;22.50;99.90
14349;DHT22;7258;50.376;8.742;2023-08-12T07:18:54;22.50;99.90
14349;DHT22;7258;50.376;8.742;2023-08-12T07:20:57;22.70;99.90
14349;DHT22;7258;50.376;8.742;2023-08-12T07:23:01;22.80;99.90
14349;DHT22;7258;50.376;8.742;2023-08-12T07:25:05;22.90;99.90
14349;DHT22;7258;50.376;8.742;2023-08-12T07:27:08;22.80;99.90
14349;DHT22;7258;50.376;8.742;2023-08-12T07:29:11;22.60;99.90
14349;DHT22;7258;50.376;8.742;2023-08-12T07:31:14;22.50;99.90
14349;DHT22;7258;50.376;8.742;2023-08-12T07:33:20;22.50;99.90
14349;DHT22;7258;50.376;8.742;2023-08-12T07:35:23;22.50;99.90
14349;DHT22;7258;50.376;8.742;2023-08-12T07:37:26;22.60;99.90
14349;DHT22;7258;50.376;8.742;2023-08-12T07:39:28;22.60;99.90
14349;DHT22;7258;50.376;8.742;2023-08-12T07:41:31;22.70;99.90
14349;DHT22;7258;50.376;8.742;2023-08-12T07:43:35;22.90;99.90
14349;DHT22;7258;50.376;8.742;2023-08-12T07:45:38;23.20;99.90
14349;DHT22;7258;50.376;8.742;2023-08-12T07:47:40;23.30;99.90
14349;DHT22;7258;50.376;8.742;2023-08-12T07:49:45;23.50;99.90
14349;DHT22;7258;50.376;8.742;2023-08-12T07:51:48;23.70;99.90
14349;DHT22;7258;50.376;8.742;2023-08-12T07:53:51;23.90;99.90
14349;DHT22;7258;50.376;8.742;2023-08-12T07:56:05;24.10;99.90
14349;DHT22;7258;50.376;8.742;2023-08-12T07:58:08;24.10;99.90
14349;DHT22;7258;50.376;8.742;2023-08-12T08:00:11;24.00;99.90
14349;DHT22;7258;50.376;8.742;2023-08-12T08:02:14;23.90;99.90
14349;DHT22;7258;50.376;8.742;2023-08-12T08:04:19;23.80;99.90
14349;DHT22;7258;50.376;8.742;2023-08-12T08:06:26;23.60;99.90
14349;DHT22;7258;50.376;8.742;2023-08-12T08:08:30;23.60;99.90
14349;DHT22;7258;50.376;8.742;2023-08-12T08:10:33;23.50;99.90
14349;DHT22;7258;50.376;8.742;2023-08-12T08:12:36;23.40;99.90
14349;DHT22;7258;50.376;8.742;2023-08-12T08:14:39;23.30;99.90
14349;DHT22;7258;50.376;8.742;2023-08-12T08:16:42;23.20;99.90
14349;DHT22;7258;50.376;8.742;2023-08-12T08:18:45;23.20;99.90
14349;DHT22;7258;50.376;8.742;2023-08-12T08:20:50;23.10;99.90
14349;DHT22;7258;50.376;8.742;2023-08-12T08:22:56;23.10;99.90
14349;DHT22;7258;50.376;8.742;2023-08-12T08:25:02;23.10;99.90
14349;DHT22;7258;50.376;8.742;2023-08-12T08:27:05;23.10;99.90
14349;DHT22;7258;50.376;8.742;2023-08-12T08:29:12;23.10;99.90
14349;DHT22;7258;50.376;8.742;2023-08-12T08:31:17;23.00;99.90
14349;DHT22;7258;50.376;8.742;2023-08-12T08:33:26;22.80;99.90
14349;DHT22;7258;50.376;8.742;2023-08-12T08:35:35;22.70;99.90
14349;DHT22;7258;50.376;8.742;2023-08-12T08:37:43;22.60;99.90
14349;DHT22;7258;50.376;8.742;2023-08-12T08:39:57;22.50;99.90
14349;DHT22;7258;50.376;8.742;2023-08-12T08:42:05;22.50;99.90
14349;DHT22;7258;50.376;8.742;2023-08-12T08:44:16;22.40;99.90
14349;DHT22;7258;50.376;8.742;2023-08-12T08:46:45;22.40;99.90
14349;DHT22;7258;50.376;8.742;2023-08-12T08:48:51;22.30;99.90
14349;DHT22;7258;50.376;8.742;2023-08-12T08:51:11;22.30;99.90
14349;DHT22;7258;50.376;8.742;2023-08-12T08:53:21;22.30;99.90
14349;DHT22;7258;50.376;8.742;2023-08-12T08:55:26;22.40;99.90
14349;DHT22;7258;50.376;8.742;2023-08-12T08:57:40;22.50;99.90
14349;DHT22;7258;50.376;8.742;2023-08-12T08:59:51;22.60;99.90
14349;DHT22;7258;50.376;8.742;2023-08-12T09:02:02;22.70;99.90
14349;DHT22;7258;50.376;8.742;2023-08-12T09:04:17;22.90;99.90
14349;DHT22;7258;50.376;8.742;2023-08-12T09:06:31;22.90;99.90
14349;DHT22;7258;50.376;8.742;2023-08-12T09:08:45;23.10;99.90
14349;DHT22;7258;50.376;8.742;2023-08-12T09:13:29;23.30;99.90
14349;DHT22;7258;50.376;8.742;2023-08-12T09:15:38;23.40;99.90
14349;DHT22;7258;50.376;8.742;2023-08-12T09:17:48;23.40;99.90
14349;DHT22;7258;50.376;8.742;2023-08-12T09:19:59;23.60;99.90
14349;DHT22;7258;50.376;8.742;2023-08-12T09:22:21;23.70;99.90
14349;DHT22;7258;50.376;8.742;2023-08-12T09:24:27;23.90;99.90
14349;DHT22;7258;50.376;8.742;2023-08-12T09:26:36;24.00;99.90
14349;DHT22;7258;50.376;8.742;2023-08-12T09:28:41;24.20;99.90
14349;DHT22;7258;50.376;8.742;2023-08-12T09:30:59;24.40;99.90
14349;DHT22;7258;50.376;8.742;2023-08-12T09:33:13;24.60;99.90
14349;DHT22;7258;50.376;8.742;2023-08-12T09:35:19;24.80;99.90
14349;DHT22;7258;50.376;8.742;2023-08-12T09:37:24;24.90;99.90
14349;DHT22;7258;50.376;8.742;2023-08-12T09:39:40;25.00;99.90
14349;DHT22;7258;50.376;8.742;2023-08-12T09:41:49;25.00;99.90
14349;DHT22;7258;50.376;8.742;2023-08-12T09:43:55;25.00;99.90
14349;DHT22;7258;50.376;8.742;2023-08-12T09:45:58;24.90;99.90
14349;DHT22;7258;50.376;8.742;2023-08-12T09:48:08;24.70;99.90
14349;DHT22;7258;50.376;8.742;2023-08-12T09:50:27;24.70;99.90
14349;DHT22;7258;50.376;8.742;2023-08-12T09:52:30;24.60;99.90
14349;DHT22;7258;50.376;8.742;2023-08-12T09:54:36;24.60;99.90
14349;DHT22;7258;50.376;8.742;2023-08-12T09:56:42;24.60;99.90
14349;DHT22;7258;50.376;8.742;2023-08-12T09:58:57;24.70;99.90
14349;DHT22;7258;50.376;8.742;2023-08-12T10:01:02;24.90;99.90
14349;DHT22;7258;50.376;8.742;2023-08-12T10:03:06;25.10;99.90
14349;DHT22;7258;50.376;8.742;2023-08-12T10:05:09;25.20;99.90
14349;DHT22;7258;50.376;8.742;2023-08-12T10:07:14;25.40;99.90
14349;DHT22;7258;50.376;8.742;2023-08-12T10:09:18;25.60;99.90
14349;DHT22;7258;50.376;8.742;2023-08-12T10:11:35;25.70;99.90
14349;DHT22;7258;50.376;8.742;2023-08-12T10:13:43;25.90;99.90
14349;DHT22;7258;50.376;8.742;2023-08-12T10:18:55;26.30;99.90
14349;DHT22;7258;50.376;8.742;2023-08-12T10:21:25;26.40;99.90
14349;DHT22;7258;50.376;8.742;2023-08-12T10:23:36;26.70;99.90
14349;DHT22;7258;50.376;8.742;2023-08-12T10:26:17;26.90;99.90
14349;DHT22;7258;50.376;8.742;2023-08-12T10:28:45;27.10;99.90
14349;DHT22;7258;50.376;8.742;2023-08-12T10:30:59;27.10;99.90
14349;DHT22;7258;50.376;8.742;2023-08-12T10:33:24;26.90;99.90
14349;DHT22;7258;50.376;8.742;2023-08-12T10:35:43;26.80;99.90
14349;DHT22;7258;50.376;8.742;2023-08-12T10:37:49;26.60;99.90
14349;DHT22;7258;50.376;8.742;2023-08-12T10:39:55;26.50;99.90
14349;DHT22;7258;50.376;8.742;2023-08-12T10:42:13;26.20;99.90
14349;DHT22;7258;50.376;8.742;2023-08-12T10:44:19;25.90;99.90
14349;DHT22;7258;50.376;8.742;2023-08-12T10:46:34;25.70;99.90
14349;DHT22;7258;50.376;8.742;2023-08-12T10:59:09;24.50;99.90
14349;DHT22;7258;50.376;8.742;2023-08-12T11:01:52;24.30;99.90
14349;DHT22;7258;50.376;8.742;2023-08-12T11:04:38;24.10;99.90
14349;DHT22;7258;50.376;8.742;2023-08-12T11:07:15;24.00;99.90
14349;DHT22;7258;50.376;8.742;2023-08-12T11:09:44;23.60;99.90
14349;DHT22;7258;50.376;8.742;2023-08-12T11:12:17;23.20;99.90
14349;DHT22;7258;50.376;8.742;2023-08-12T11:17:41;22.40;99.90
14349;DHT22;7258;50.376;8.742;2023-08-12T11:19:53;22.10;99.90
14349;DHT22;7258;50.376;8.742;2023-08-12T11:22:06;21.90;99.90
14349;DHT22;7258;50.376;8.742;2023-08-12T11:24:25;21.70;99.90
14349;DHT22;7258;50.376;8.742;2023-08-12T11:26:33;21.60;99.90
14349;DHT22;7258;50.376;8.742;2023-08-12T11:28:45;21.50;99.90
14349;DHT22;7258;50.376;8.742;2023-08-12T11:30:49;21.40;99.90
14349;DHT22;7258;50.376;8.742;2023-08-12T11:32:55;21.40;99.90
14349;DHT22;7258;50.376;8.742;2023-08-12T11:34:59;21.40;99.90
14349;DHT22;7258;50.376;8.742;2023-08-12T11:37:03;21.40;99.90
14349;DHT22;7258;50.376;8.742;2023-08-12T11:39:10;21.40;99.90
14349;DHT22;7258;50.376;8.742;2023-08-12T11:41:24;21.50;99.90
14349;DHT22;7258;50.376;8.742;2023-08-12T11:43:59;21.60;99.90
14349;DHT22;7258;50.376;8.742;2023-08-12T11:46:21;21.90;99.90
14349;DHT22;7258;50.376;8.742;2023-08-12T11:48:38;22.20;99.90
14349;DHT22;7258;50.376;8.742;2023-08-12T11:51:24;22.60;99.90
14349;DHT22;7258;50.376;8.742;2023-08-12T11:53:38;23.00;99.90
14349;DHT22;7258;50.376;8.742;2023-08-12T11:55:56;23.10;99.90
14349;DHT22;7258;50.376;8.742;2023-08-12T11:58:52;23.10;99.90
14349;DHT22;7258;50.376;8.742;2023-08-12T12:00:58;23.20;99.90
14349;DHT22;7258;50.376;8.742;2023-08-12T12:03:09;23.30;99.90
14349;DHT22;7258;50.376;8.742;2023-08-12T12:05:27;23.30;99.90
14349;DHT22;7258;50.376;8.742;2023-08-12T12:07:48;23.40;99.90
14349;DHT22;7258;50.376;8.742;2023-08-12T12:09:55;23.50;99.90
14349;DHT22;7258;50.376;8.742;2023-08-12T12:12:10;23.50;99.90
14349;DHT22;7258;50.376;8.742;2023-08-12T12:14:14;23.50;99.90
14349;DHT22;7258;50.376;8.742;2023-08-12T12:16:17;23.60;99.90
14349;DHT22;7258;50.376;8.742;2023-08-12T12:18:20;23.70;99.90
14349;DHT22;7258;50.376;8.742;2023-08-12T12:23:18;23.70;99.90
14349;DHT22;7258;50.376;8.742;2023-08-12T12:25:28;23.70;99.90
14349;DHT22;7258;50.376;8.742;2023-08-12T12:27:40;23.60;99.90
14349;DHT22;7258;50.376;8.742;2023-08-12T12:29:46;23.50;99.90
14349;DHT22;7258;50.376;8.742;2023-08-12T12:31:58;23.50;99.90
14349;DHT22;7258;50.376;8.742;2023-08-12T12:34:04;23.50;99.90
14349;DHT22;7258;50.376;8.742;2023-08-12T12:36:11;23.50;99.90
14349;DHT22;7258;50.376;8.742;2023-08-12T12:38:14;23.60;99.90
14349;DHT22;7258;50.376;8.742;2023-08-12T12:40:19;23.60;99.90
14349;DHT22;7258;50.376;8.742;2023-08-12T12:42:25;23.70;99.90
14349;DHT22;7258;50.376;8.742;2023-08-12T12:44:28;23.70;99.90
14349;DHT22;7258;50.376;8.742;2023-08-12T12:46:30;23.80;99.90
14349;DHT22;7258;50.376;8.742;2023-08-12T12:48:35;23.80;99.90
14349;DHT22;7258;50.376;8.742;2023-08-12T12:50:49;23.90;99.90
14349;DHT22;7258;50.376;8.742;2023-08-12T12:52:53;24.10;99.90
14349;DHT22;7258;50.376;8.742;2023-08-12T12:55:12;24.10;99.90
14349;DHT22;7258;50.376;8.742;2023-08-12T12:57:15;24.20;99.90
14349;DHT22;7258;50.376;8.742;2023-08-12T12:59:21;24.40;99.90
14349;DHT22;7258;50.376;8.742;2023-08-12T13:01:30;24.50;99.90
14349;DHT22;7258;50.376;8.742;2023-08-12T13:03:36;24.70;99.90
14349;DHT22;7258;50.376;8.742;2023-08-12T13:05:52;24.90;99.90
14349;DHT22;7258;50.376;8.742;2023-08-12T13:07:57;25.30;99.90
14349;DHT22;7258;50.376;8.742;2023-08-12T13:10:01;25.70;99.90
14349;DHT22;7258;50.376;8.742;2023-08-12T13:12:05;26.00;99.90
14349;DHT22;7258;50.376;8.742;2023-08-12T13:14:08;26.20;99.90
14349;DHT22;7258;50.376;8.742;2023-08-12T13:16:11;26.30;99.90
14349;DHT22;7258;50.376;8.742;2023-08-12T13:18:23;26.50;99.90
14349;DHT22;7258;50.376;8.742;2023-08-12T13:20:31;26.60;99.90
14349;DHT22;7258;50.376;8.742;2023-08-12T13:22:55;26.60;99.90
14349;DHT22;7258;50.376;8.742;2023-08-12T13:25:28;26.60;99.90
14349;DHT22;7258;50.376;8.742;2023-08-12T13:27:44;26.70;99.90
14349;DHT22;7258;50.376;8.742;2023-08-12T13:29:52;26.70;99.90
14349;DHT22;7258;50.376;8.742;2023-08-12T13:32:10;26.70;99.90
14349;DHT22;7258;50.376;8.742;2023-08-12T13:34:21;26.60;99.90
14349;DHT22;7258;50.376;8.742;2023-08-12T13:36:27;26.70;99.90
14349;DHT22;7258;50.376;8.742;2023-08-12T13:38:33;26.70;99.90
14349;DHT22;7258;50.376;8.742;2023-08-12T13:40:58;26.80;99.90
14349;DHT22;7258;50.376;8.742;2023-08-12T13:43:10;26.80;99.90
14349;DHT22;7258;50.376;8.742;2023-08-12T13:45:17;26.70;99.90
14349;DHT22;7258;50.376;8.742;2023-08-12T13:47:46;26.80;99.90
14349;DHT22;7258;50.376;8.742;2023-08-12T13:53:27;27.10;99.90
14349;DHT22;7258;50.376;8.742;2023-08-12T13:55:40;27.40;99.90
14349;DHT22;7258;50.376;8.742;2023-08-12T13:57:50;27.40;99.90
14349;DHT22;7258;50.376;8.742;2023-08-12T13:59:54;27.20;99.90
14349;DHT22;7258;50.376;8.742;2023-08-12T14:01:56;27.30;99.90
14349;DHT22;7258;50.376;8.742;2023-08-12T14:03:59;27.50;99.90
14349;DHT22;7258;50.376;8.742;2023-08-12T14:06:02;27.70;99.90
14349;DHT22;7258;50.376;8.742;2023-08-12T14:08:05;27.80;99.90
14349;DHT22;7258;50.376;8.742;2023-08-12T14:10:08;27.80;99.90
14349;DHT22;7258;50.376;8.742;2023-08-12T14:12:11;27.70;99.90
14349;DHT22;7258;50.376;8.742;2023-08-12T14:14:16;27.70;99.90
14349;DHT22;7258;50.376;8.742;2023-08-12T14:16:19;27.50;99.90
14349;DHT22;7258;50.376;8.742;2023-08-12T14:18:22;27.40;99.90
14349;DHT22;7258;50.376;8.742;2023-08-12T14:20:25;27.30;99.90
14349;DHT22;7258;50.376;8.742;2023-08-12T14:22:28;27.40;99.90
14349;DHT22;7258;50.376;8.742;2023-08-12T14:24:31;27.70;99.90
14349;DHT22;7258;50.376;8.742;2023-08-12T14:26:33;27.90;99.90
14349;DHT22;7258;50.376;8.742;2023-08-12T14:28:38;28.00;99.90
14349;DHT22;7258;50.376;8.742;2023-08-12T14:30:42;28.20;99.90
14349;DHT22;7258;50.376;8.742;2023-08-12T14:32:45;28.10;99.90
14349;DHT22;7258;50.376;8.742;2023-08-12T14:34:50;27.90;99.90
14349;DHT22;7258;50.376;8.742;2023-08-12T14:36:52;28.00;99.90
14349;DHT22;7258;50.376;8.742;2023-08-12T14:38:55;28.10;99.90
14349;DHT22;7258;50.376;8.742;2023-08-12T14:40:58;28.30;99.90
14349;DHT22;7258;50.376;8.742;2023-08-12T14:43:01;28.70;99.90
14349;DHT22;7258;50.376;8.742;2023-08-12T14:45:05;28.90;99.90
14349;DHT22;7258;50.376;8.742;2023-08-12T14:47:09;28.90;99.90
14349;DHT22;7258;50.376;8.742;2023-08-12T14:49:12;28.80;99.90
14349;DHT22;7258;50.376;8.742;2023-08-12T14:51:15;28.60;99.90
14349;DHT22;7258;50.376;8.742;2023-08-12T14:53:18;28.50;99.90
14349;DHT22;7258;50.376;8.742;2023-08-12T14:55:21;28.30;99.90
14349;DHT22;7258;50.376;8.742;2023-08-12T14:57:24;28.40;99.90
14349;DHT22;7258;50.376;8.742;2023-08-12T14:59:27;28.30;99.90
14349;DHT22;7258;50.376;8.742;2023-08-12T15:01:30;28.70;99.90
14349;DHT22;7258;50.376;8.742;2023-08-12T15:03:34;28.90;99.90
14349;DHT22;7258;50.376;8.742;2023-08-12T15:05:37;28.90;99.90
14349;DHT22;7258;50.376;8.742;2023-08-12T15:07:40;28.90;99.90